Time,TemperatureF,DewpointF,PressureIn,WindDirection,WindDirectionDegrees,WindSpeedMPH,WindSpeedGustMPH,Humidity,HourlyPrecipIn,Conditions,Clouds,dailyrainin,SoftwareType,DateUTC
2015-03-04 00:04:00,33.9,32.0,29.79,South,189,4.0,8.0,94,0.00,,,0.00,weatherlink.com 1.10,2015-03-04 05:04:00,
2015-03-04 00:20:00,34.3,33.0,29.77,SSE,156,1.0,5.0,93,0.00,,,0.00,weatherlink.com 1.10,2015-03-04 05:20:00,
2015-03-04 00:35:00,34.7,33.0,29.77,SSW,195,2.0,7.0,93,0.00,,,0.00,weatherlink.com 1.10,2015-03-04 05:35:00,
2015-03-04 00:50:00,35.1,33.0,29.77,SW,215,5.0,9.0,93,0.00,,,0.00,weatherlink.com 1.10,2015-03-04 05:50:00,
2015-03-04 01:05:00,35.2,33.0,29.76,SSW,210,1.0,8.0,93,0.00,,,0.00,weatherlink.com 1.10,2015-03-04 06:05:00,
2015-03-04 01:20:00,35.1,33.0,29.75,SW,218,1.0,9.0,93,0.00,,,0.00,weatherlink.com 1.10,2015-03-04 06:20:00,
2015-03-04 01:35:00,35.1,33.0,29.75,South,169,0.0,3.0,93,0.00,,,0.00,weatherlink.com 1.10,2015-03-04 06:35:00,
2015-03-04 01:50:00,34.9,33.0,29.75,SSW,210,0.0,2.0,94,0.00,,,0.00,weatherlink.com 1.10,2015-03-04 06:50:00,
2015-03-04 02:05:00,35.1,34.0,29.75,SSE,160,0.0,4.0,94,0.00,,,0.00,weatherlink.com 1.10,2015-03-04 07:05:00,
2015-03-04 02:20:00,34.9,33.0,29.74,SSW,192,0.0,5.0,94,0.00,,,0.00,weatherlink.com 1.10,2015-03-04 07:20:00,
2015-03-04 02:35:00,35.0,34.0,29.72,SSW,210,3.0,6.0,94,0.00,,,0.00,weatherlink.com 1.10,2015-03-04 07:35:00,
2015-03-04 02:50:00,35.2,33.0,29.71,East,97,3.0,4.0,93,0.00,,,0.00,weatherlink.com 1.10,2015-03-04 07:50:00,
2015-03-04 03:05:00,35.1,33.0,29.72,South,177,1.0,3.0,93,0.00,,,0.00,weatherlink.com 1.10,2015-03-04 08:05:00,
2015-03-04 03:20:00,35.1,33.0,29.72,South,181,0.0,6.0,93,0.00,,,0.00,weatherlink.com 1.10,2015-03-04 08:20:00,
2015-03-04 03:35:00,35.1,33.0,29.73,SW,217,0.0,1.0,93,0.00,,,0.00,weatherlink.com 1.10,2015-03-04 08:35:00,
2015-03-04 03:50:00,35.0,33.0,29.71,SW,221,0.0,3.0,93,0.00,,,0.00,weatherlink.com 1.10,2015-03-04 08:50:00,
2015-03-04 04:05:00,35.1,33.0,29.71,SW,219,0.0,2.0,93,0.00,,,0.00,weatherlink.com 1.10,2015-03-04 09:05:00,
2015-03-04 04:20:00,35.0,33.0,29.70,SW,219,0.0,2.0,93,0.00,,,0.00,weatherlink.com 1.10,2015-03-04 09:20:00,
2015-03-04 04:35:00,34.9,33.0,29.71,SSW,194,0.0,2.0,94,0.00,,,0.00,weatherlink.com 1.10,2015-03-04 09:35:00,
2015-03-04 04:50:00,34.8,33.0,29.71,SW,219,0.0,3.0,94,0.00,,,0.00,weatherlink.com 1.10,2015-03-04 09:50:00,
2015-03-04 05:05:00,34.4,33.0,29.72,SW,235,0.0,1.0,94,0.01,,,0.01,weatherlink.com 1.10,2015-03-04 10:05:00,
2015-03-04 05:20:00,34.3,33.0,29.73,South,184,0.0,1.0,94,0.01,,,0.01,weatherlink.com 1.10,2015-03-04 10:20:00,
2015-03-04 05:35:00,34.2,33.0,29.74,SW,229,0.0,1.0,94,0.02,,,0.02,weatherlink.com 1.10,2015-03-04 10:35:00,
2015-03-04 05:50:00,34.2,33.0,29.75,WSW,251,0.0,1.0,95,0.02,,,0.02,weatherlink.com 1.10,2015-03-04 10:50:00,
2015-03-04 06:05:00,34.0,33.0,29.75,WSW,251,0.0,1.0,95,0.02,,,0.03,weatherlink.com 1.10,2015-03-04 11:05:00,
2015-03-04 06:20:00,33.8,33.0,29.75,SW,221,0.0,1.0,95,0.02,,,0.03,weatherlink.com 1.10,2015-03-04 11:20:00,
2015-03-04 06:35:00,33.7,33.0,29.76,SW,221,0.0,0.0,95,0.01,,,0.03,weatherlink.com 1.10,2015-03-04 11:35:00,
2015-03-04 06:50:00,33.7,33.0,29.76,SW,235,0.0,1.0,95,0.02,,,0.04,weatherlink.com 1.10,2015-03-04 11:50:00,
2015-03-04 07:05:00,33.9,33.0,29.77,SW,214,0.0,1.0,95,0.01,,,0.04,weatherlink.com 1.10,2015-03-04 12:05:00,
2015-03-04 07:20:00,34.1,33.0,29.78,SW,227,0.0,1.0,95,0.02,,,0.05,weatherlink.com 1.10,2015-03-04 12:20:00,
2015-03-04 07:35:00,34.3,33.0,29.78,SSW,196,0.0,1.0,95,0.02,,,0.05,weatherlink.com 1.10,2015-03-04 12:35:00,
2015-03-04 07:50:00,34.7,34.0,29.78,South,175,0.0,0.0,95,0.02,,,0.06,weatherlink.com 1.10,2015-03-04 12:50:00,
2015-03-04 08:05:00,34.9,34.0,29.80,WSW,241,0.0,1.0,95,0.02,,,0.06,weatherlink.com 1.10,2015-03-04 13:05:00,
2015-03-04 08:20:00,35.2,34.0,29.79,SSE,166,1.0,1.0,95,0.02,,,0.07,weatherlink.com 1.10,2015-03-04 13:20:00,
2015-03-04 08:35:00,35.3,34.0,29.80,South,185,1.0,2.0,95,0.03,,,0.08,weatherlink.com 1.10,2015-03-04 13:35:00,
2015-03-04 08:50:00,36.0,35.0,29.81,SW,215,0.0,1.0,94,0.03,,,0.09,weatherlink.com 1.10,2015-03-04 13:50:00,
2015-03-04 09:06:00,37.1,35.0,29.81,SSW,195,0.0,2.0,93,0.04,,,0.10,weatherlink.com 1.10,2015-03-04 14:06:00,
2015-03-04 09:21:00,38.3,36.0,29.81,South,191,0.0,2.0,91,0.05,,,0.12,weatherlink.com 1.10,2015-03-04 14:21:00,
2015-03-04 09:36:00,38.5,36.0,29.82,South,169,0.0,4.0,90,0.06,,,0.14,weatherlink.com 1.10,2015-03-04 14:36:00,
2015-03-04 09:51:00,39.4,37.0,29.82,SW,218,0.0,1.0,89,0.07,,,0.16,weatherlink.com 1.10,2015-03-04 14:51:00,
2015-03-04 10:06:00,40.5,36.0,29.82,NNW,347,0.0,3.0,84,0.08,,,0.18,weatherlink.com 1.10,2015-03-04 15:06:00,
2015-03-04 10:21:00,40.9,36.0,29.83,WSW,241,2.0,3.0,83,0.08,,,0.20,weatherlink.com 1.10,2015-03-04 15:21:00,
2015-03-04 10:36:00,41.5,36.0,29.82,West,263,0.0,3.0,82,0.08,,,0.22,weatherlink.com 1.10,2015-03-04 15:36:00,
2015-03-04 10:51:00,42.4,36.0,29.82,SSW,211,2.0,4.0,78,0.08,,,0.24,weatherlink.com 1.10,2015-03-04 15:51:00,
2015-03-04 11:06:00,42.4,35.0,29.84,WSW,243,1.0,4.0,76,0.08,,,0.26,weatherlink.com 1.10,2015-03-04 16:06:00,
2015-03-04 11:21:00,42.5,35.0,29.84,NNE,12,3.0,11.0,75,0.08,,,0.28,weatherlink.com 1.10,2015-03-04 16:21:00,
2015-03-04 11:36:00,42.9,35.0,29.84,WNW,285,1.0,2.0,74,0.08,,,0.30,weatherlink.com 1.10,2015-03-04 16:36:00,
2015-03-04 11:51:00,43.6,35.0,29.84,NW,309,0.0,3.0,73,0.06,,,0.31,weatherlink.com 1.10,2015-03-04 16:51:00,
2015-03-04 12:06:00,43.6,35.0,29.83,WSW,242,5.0,5.0,72,0.07,,,0.33,weatherlink.com 1.10,2015-03-04 17:06:00,
2015-03-04 12:21:00,43.3,35.0,29.84,NE,53,0.0,2.0,72,0.06,,,0.34,weatherlink.com 1.10,2015-03-04 17:21:00,
2015-03-04 12:37:00,43.1,35.0,29.84,East,86,1.0,6.0,72,0.06,,,0.36,weatherlink.com 1.10,2015-03-04 17:37:00,
2015-03-04 12:51:00,43.5,35.0,29.84,ENE,68,0.0,2.0,71,0.04,,,0.36,weatherlink.com 1.10,2015-03-04 17:51:00,
2015-03-04 13:06:00,43.3,34.0,29.83,NE,50,0.0,7.0,71,0.04,,,0.37,weatherlink.com 1.10,2015-03-04 18:06:00,
2015-03-04 13:21:00,43.6,34.0,29.82,NNE,13,2.0,3.0,70,0.04,,,0.38,weatherlink.com 1.10,2015-03-04 18:21:00,
2015-03-04 13:36:00,43.3,34.0,29.83,SW,231,0.0,6.0,71,0.04,,,0.39,weatherlink.com 1.10,2015-03-04 18:36:00,
2015-03-04 13:51:00,43.5,34.0,29.81,ENE,60,0.0,3.0,70,0.04,,,0.40,weatherlink.com 1.10,2015-03-04 18:51:00,
2015-03-04 14:06:00,43.1,34.0,29.81,SW,223,3.0,4.0,70,0.03,,,0.40,weatherlink.com 1.10,2015-03-04 19:06:00,
2015-03-04 14:21:00,43.0,34.0,29.82,NNE,25,2.0,4.0,70,0.03,,,0.41,weatherlink.com 1.10,2015-03-04 19:21:00,
2015-03-04 14:36:00,42.8,34.0,29.80,ENE,62,0.0,3.0,70,0.02,,,0.41,weatherlink.com 1.10,2015-03-04 19:36:00,
2015-03-04 14:51:00,42.9,34.0,29.80,SSE,163,0.0,4.0,70,0.01,,,0.41,weatherlink.com 1.10,2015-03-04 19:51:00,
2015-03-04 15:06:00,43.0,34.0,29.80,WSW,252,1.0,2.0,70,0.01,,,0.41,weatherlink.com 1.10,2015-03-04 20:06:00,
2015-03-04 15:21:00,42.6,34.0,29.82,ESE,122,0.0,1.0,71,0.00,,,0.41,weatherlink.com 1.10,2015-03-04 20:21:00,
2015-03-04 15:36:00,42.4,34.0,29.84,NNE,32,0.0,6.0,71,0.00,,,0.41,weatherlink.com 1.10,2015-03-04 20:36:00,
2015-03-04 15:51:00,42.3,34.0,29.84,West,274,0.0,4.0,71,0.00,,,0.41,weatherlink.com 1.10,2015-03-04 20:51:00,
2015-03-04 16:06:00,42.1,33.0,29.84,SSE,161,0.0,2.0,71,0.00,,,0.41,weatherlink.com 1.10,2015-03-04 21:06:00,
2015-03-04 16:21:00,41.9,33.0,29.85,SW,221,0.0,1.0,72,0.00,,,0.41,weatherlink.com 1.10,2015-03-04 21:21:00,
2015-03-04 16:36:00,41.6,34.0,29.84,SSW,202,0.0,0.0,73,0.00,,,0.41,weatherlink.com 1.10,2015-03-04 21:36:00,
2015-03-04 16:51:00,41.1,33.0,29.84,SSW,202,0.0,0.0,74,0.00,,,0.41,weatherlink.com 1.10,2015-03-04 21:51:00,
2015-03-04 17:06:00,40.5,34.0,29.84,WSW,238,0.0,1.0,76,0.00,,,0.41,weatherlink.com 1.10,2015-03-04 22:06:00,
2015-03-04 17:21:00,39.5,34.0,29.84,NW,310,0.0,0.0,79,0.00,,,0.41,weatherlink.com 1.10,2015-03-04 22:21:00,
2015-03-04 17:36:00,38.9,34.0,29.84,NW,310,0.0,0.0,81,0.00,,,0.41,weatherlink.com 1.10,2015-03-04 22:36:00,
2015-03-04 17:51:00,38.0,33.0,29.86,NW,310,0.0,0.0,83,0.00,,,0.41,weatherlink.com 1.10,2015-03-04 22:51:00,
2015-03-04 18:06:00,37.3,33.0,29.86,SSW,201,0.0,0.0,85,0.00,,,0.41,weatherlink.com 1.10,2015-03-04 23:06:00,
2015-03-04 18:21:00,36.9,33.0,29.86,SSW,201,0.0,0.0,86,0.00,,,0.41,weatherlink.com 1.10,2015-03-04 23:21:00,
2015-03-04 18:36:00,36.6,33.0,29.87,SSW,200,0.0,0.0,87,0.00,,,0.41,weatherlink.com 1.10,2015-03-04 23:36:00,
2015-03-04 18:51:00,36.2,33.0,29.86,SSW,201,0.0,0.0,87,0.00,,,0.41,weatherlink.com 1.10,2015-03-04 23:51:00,